createdAt,value
2019-01-06T00:00:02.063Z,2.3
2019-01-06T00:05:01.529Z,2.4
2019-01-06T00:10:01.819Z,2.4
2019-01-06T00:15:01.525Z,2.3
2019-01-06T00:20:01.541Z,2.3
2019-01-06T00:25:01.925Z,2.2
2019-01-06T00:30:03.146Z,2.1
2019-01-06T00:35:01.973Z,2
2019-01-06T00:40:02.191Z,2
2019-01-06T00:45:01.783Z,2
2019-01-06T00:50:01.263Z,1.9
2019-01-06T00:55:01.887Z,1.9
2019-01-06T01:00:01.779Z,1.8
2019-01-06T01:05:01.437Z,1.8
2019-01-06T01:10:01.346Z,1.7
2019-01-06T01:15:02.430Z,1.7
2019-01-06T01:20:01.850Z,1.6
2019-01-06T01:25:01.710Z,1.5
2019-01-06T01:30:02.323Z,1.4
2019-01-06T01:35:01.602Z,1.4
2019-01-06T01:40:01.957Z,1.3
2019-01-06T01:45:01.560Z,1.3
2019-01-06T01:50:02.515Z,1.2
2019-01-06T01:55:01.543Z,1.1
2019-01-06T02:00:01.590Z,1.2
2019-01-06T02:05:01.383Z,1.2
2019-01-06T02:10:01.647Z,1.2
2019-01-06T02:15:01.267Z,1.2
2019-01-06T02:20:02.024Z,1.2
2019-01-06T02:25:02.157Z,1.2
2019-01-06T02:30:01.846Z,1.2
2019-01-06T02:35:01.315Z,1.2
2019-01-06T02:40:01.262Z,1.2
2019-01-06T02:45:01.778Z,1
2019-01-06T02:50:01.403Z,0.9
2019-01-06T02:55:01.835Z,0.8
2019-01-06T03:00:01.436Z,0.8
2019-01-06T03:05:01.199Z,0.8
2019-01-06T03:10:01.488Z,0.9
2019-01-06T03:15:02.192Z,0.9
2019-01-06T03:20:01.501Z,0.9
2019-01-06T03:25:01.378Z,1
2019-01-06T03:30:01.822Z,1.1
2019-01-06T03:35:01.672Z,1.2
2019-01-06T03:40:01.815Z,1.2
2019-01-06T03:45:01.404Z,1.3
2019-01-06T03:50:01.587Z,1.3
2019-01-06T03:55:01.963Z,1.3
2019-01-06T04:00:02.091Z,1.4
2019-01-06T04:05:01.307Z,1.6
2019-01-06T04:10:01.612Z,1.6
2019-01-06T04:15:02.007Z,1.6
2019-01-06T04:20:02.000Z,1.6
2019-01-06T04:25:01.891Z,1.6
2019-01-06T04:30:02.056Z,1.7
2019-01-06T04:35:01.978Z,1.8
2019-01-06T04:40:02.207Z,1.8
2019-01-06T04:45:02.014Z,1.9
2019-01-06T04:50:01.213Z,1.9
2019-01-06T04:55:02.195Z,2
2019-01-06T05:00:02.122Z,2
2019-01-06T05:05:02.045Z,2
2019-01-06T05:10:01.800Z,2
2019-01-06T05:15:01.627Z,2
2019-01-06T05:20:01.746Z,2
2019-01-06T05:25:01.600Z,2.1
2019-01-06T05:30:01.387Z,2.1
2019-01-06T05:35:01.810Z,2.2
2019-01-06T05:40:01.752Z,2.2
2019-01-06T05:45:01.855Z,2.3
2019-01-06T05:50:01.625Z,2.2
2019-01-06T05:55:01.905Z,2.1
2019-01-06T06:00:01.545Z,2.2
2019-01-06T06:05:01.158Z,2.3
2019-01-06T06:10:01.463Z,2.4
2019-01-06T06:15:01.528Z,2.4
2019-01-06T06:20:01.327Z,2.4
2019-01-06T06:25:01.162Z,2.4
2019-01-06T06:30:01.644Z,2.5
2019-01-06T06:35:01.185Z,2.5
2019-01-06T06:40:02.124Z,2.5
2019-01-06T06:45:01.388Z,2.5
2019-01-06T06:50:01.738Z,2.6
2019-01-06T06:55:01.631Z,2.7
2019-01-06T07:00:02.036Z,2.7
2019-01-06T07:05:01.494Z,2.7
2019-01-06T07:10:01.854Z,2.8
2019-01-06T07:15:01.837Z,2.7
2019-01-06T07:20:01.847Z,2.7
2019-01-06T07:25:01.305Z,2.7
2019-01-06T07:30:01.630Z,2.7
2019-01-06T07:35:02.033Z,2.7
2019-01-06T07:40:01.891Z,2.7
2019-01-06T07:45:01.676Z,2.7
2019-01-06T07:50:02.037Z,2.7
2019-01-06T07:55:01.826Z,2.7
2019-01-06T08:00:01.222Z,2.8
2019-01-06T08:05:01.845Z,2.9
2019-01-06T08:10:01.493Z,2.9
2019-01-06T08:15:01.918Z,2.9
2019-01-06T08:20:02.306Z,3
2019-01-06T08:25:01.781Z,3
2019-01-06T08:30:02.152Z,3
2019-01-06T08:35:02.039Z,3
2019-01-06T08:40:01.924Z,3
2019-01-06T08:45:02.067Z,3.1
2019-01-06T08:50:01.506Z,3.2
2019-01-06T08:55:01.703Z,3.2
2019-01-06T09:00:01.339Z,3.2
2019-01-06T09:05:01.653Z,3.2
2019-01-06T09:10:02.026Z,3.2
2019-01-06T09:15:01.483Z,3.2
2019-01-06T09:20:02.016Z,3.2
2019-01-06T09:25:01.905Z,3.2
2019-01-06T09:30:02.107Z,3.2
2019-01-06T09:35:02.023Z,3.4
2019-01-06T09:40:02.302Z,3.5
2019-01-06T09:45:01.939Z,3.7
2019-01-06T09:50:01.971Z,3.8
2019-01-06T09:55:02.001Z,3.8
2019-01-06T10:00:02.217Z,3.8
2019-01-06T10:05:01.490Z,3.8
2019-01-06T10:10:01.507Z,3.9
2019-01-06T10:15:01.425Z,3.9
2019-01-06T10:20:02.388Z,4
2019-01-06T10:25:01.952Z,4.1
2019-01-06T10:30:01.894Z,4.2
2019-01-06T10:35:02.371Z,4.2
2019-01-06T10:40:01.891Z,4.1
2019-01-06T10:45:01.564Z,4.1
2019-01-06T10:50:01.630Z,4.2
2019-01-06T10:55:01.877Z,4.2
2019-01-06T11:00:02.028Z,4.4
2019-01-06T11:05:02.132Z,4.4
2019-01-06T11:10:01.389Z,4.5
2019-01-06T11:15:01.649Z,4.6
2019-01-06T11:20:01.385Z,4.5
2019-01-06T11:25:01.352Z,4.7
2019-01-06T11:30:01.952Z,4.8
2019-01-06T11:35:01.570Z,4.8
2019-01-06T11:40:01.657Z,4.9
2019-01-06T11:45:01.966Z,5
2019-01-06T11:50:01.985Z,5
2019-01-06T11:55:02.126Z,5.1
2019-01-06T12:00:01.581Z,5.1
2019-01-06T12:05:02.253Z,5.1
2019-01-06T12:10:02.035Z,5
2019-01-06T12:15:01.351Z,5
2019-01-06T12:20:01.678Z,5.1
2019-01-06T12:25:01.724Z,5.1
2019-01-06T12:30:01.587Z,5.1
2019-01-06T12:35:01.507Z,5.1
2019-01-06T12:40:01.474Z,5
2019-01-06T12:45:01.408Z,5
2019-01-06T12:50:01.392Z,5
2019-01-06T12:55:01.654Z,5
2019-01-06T13:00:01.625Z,5.1
2019-01-06T13:05:01.362Z,5.1
2019-01-06T13:10:01.535Z,5.2
2019-01-06T13:15:01.924Z,5.2
2019-01-06T13:20:01.763Z,5.3
2019-01-06T13:25:01.356Z,5.4
2019-01-06T13:30:01.257Z,5.4
2019-01-06T13:35:01.321Z,5.4
2019-01-06T13:40:01.520Z,5.4
2019-01-06T13:45:01.305Z,5.5
2019-01-06T13:50:01.310Z,5.5
2019-01-06T13:55:01.566Z,5.5
2019-01-06T14:00:01.882Z,5.5
2019-01-06T14:05:01.461Z,5.6
2019-01-06T14:10:01.770Z,5.5
2019-01-06T14:15:01.699Z,5.6
2019-01-06T14:20:01.641Z,5.6
2019-01-06T14:25:02.303Z,5.6
2019-01-06T14:30:01.569Z,5.6
2019-01-06T14:35:01.234Z,5.6
2019-01-06T14:40:02.289Z,5.6
2019-01-06T14:45:02.055Z,5.7
2019-01-06T14:50:02.135Z,5.7
2019-01-06T14:55:01.916Z,5.7
2019-01-06T15:00:01.654Z,5.7
2019-01-06T15:05:01.873Z,5.7
2019-01-06T15:10:02.029Z,5.7
2019-01-06T15:15:01.736Z,5.8
2019-01-06T15:20:01.814Z,5.7
2019-01-06T15:25:01.757Z,5.7
2019-01-06T15:30:02.166Z,5.8
2019-01-06T15:35:01.690Z,5.8
2019-01-06T15:40:01.571Z,5.8
2019-01-06T15:45:01.785Z,5.9
2019-01-06T15:50:01.547Z,5.9
2019-01-06T15:55:01.353Z,5.9
2019-01-06T16:00:01.943Z,5.9
2019-01-06T16:05:02.230Z,6
2019-01-06T16:10:01.509Z,6
2019-01-06T16:15:02.175Z,6.1
2019-01-06T16:20:01.790Z,6.1
2019-01-06T16:25:02.330Z,6.1
2019-01-06T16:30:01.808Z,6.1
2019-01-06T16:35:01.858Z,6.2
2019-01-06T16:40:01.174Z,6.2
2019-01-06T16:45:01.503Z,6.2
2019-01-06T16:50:01.460Z,6.3
2019-01-06T16:55:02.120Z,6.3
2019-01-06T17:00:01.628Z,6.3
2019-01-06T17:05:02.302Z,6.3
2019-01-06T17:10:01.876Z,6.4
2019-01-06T17:15:01.423Z,6.4
2019-01-06T17:20:02.041Z,6.5
2019-01-06T17:25:01.700Z,6.5
2019-01-06T17:30:01.196Z,6.5
2019-01-06T17:35:01.302Z,6.5
2019-01-06T17:40:01.563Z,6.5
2019-01-06T17:45:01.397Z,6.6
2019-01-06T17:50:01.354Z,6.6
2019-01-06T17:55:01.557Z,6.7
2019-01-06T18:00:01.319Z,6.7
2019-01-06T18:05:01.913Z,6.7
2019-01-06T18:10:02.138Z,6.8
2019-01-06T18:15:01.540Z,6.8
2019-01-06T18:20:01.488Z,6.8
2019-01-06T18:25:01.606Z,6.8
2019-01-06T18:30:02.402Z,6.8
2019-01-06T18:35:01.468Z,6.8
2019-01-06T18:40:01.971Z,6.8
2019-01-06T18:45:08.640Z,6.9
2019-01-06T18:50:01.919Z,6.9
2019-01-06T18:55:01.594Z,6.9
2019-01-06T19:00:01.682Z,6.9
2019-01-06T19:05:01.537Z,6.9
2019-01-06T19:10:01.624Z,6.9
2019-01-06T19:15:01.728Z,6.9
2019-01-06T19:20:02.004Z,6.9
2019-01-06T19:25:01.517Z,6.9
2019-01-06T19:30:01.602Z,6.9
2019-01-06T19:35:02.369Z,6.9
2019-01-06T19:40:01.579Z,6.9
2019-01-06T19:45:01.386Z,6.9
2019-01-06T19:50:01.352Z,6.9
2019-01-06T19:55:01.814Z,6.9
2019-01-06T20:00:01.603Z,6.9
2019-01-06T20:05:01.635Z,6.9
2019-01-06T20:10:01.584Z,7
2019-01-06T20:15:01.900Z,6.9
2019-01-06T20:20:01.513Z,6.9
2019-01-06T20:25:01.659Z,6.9
2019-01-06T20:30:02.013Z,6.9
2019-01-06T20:35:01.678Z,6.9
2019-01-06T20:40:01.592Z,6.8
2019-01-06T20:45:01.302Z,6.9
2019-01-06T20:50:01.971Z,6.9
2019-01-06T20:55:02.347Z,6.9
2019-01-06T21:00:01.527Z,6.9
2019-01-06T21:05:01.921Z,6.9
2019-01-06T21:10:01.873Z,7
2019-01-06T21:15:02.257Z,7
2019-01-06T21:20:02.162Z,7
2019-01-06T21:25:01.403Z,7
2019-01-06T21:30:01.694Z,7
2019-01-06T21:35:01.497Z,7
2019-01-06T21:40:02.067Z,7
2019-01-06T21:45:01.654Z,7
2019-01-06T21:50:01.547Z,7
2019-01-06T21:55:01.909Z,7.1
2019-01-06T22:00:01.337Z,7.1
2019-01-06T22:05:01.748Z,7
2019-01-06T22:10:01.977Z,7.1
2019-01-06T22:15:01.964Z,7.1
2019-01-06T22:20:02.099Z,7.1
2019-01-06T22:25:02.017Z,7.1
2019-01-06T22:30:01.279Z,7.1
2019-01-06T22:35:02.000Z,7.1
2019-01-06T22:40:01.293Z,7
2019-01-06T22:45:01.509Z,7
2019-01-06T22:50:01.449Z,7
2019-01-06T22:55:01.546Z,7
2019-01-06T23:00:01.795Z,7
2019-01-06T23:05:01.526Z,7
2019-01-06T23:10:01.916Z,7
2019-01-06T23:15:01.942Z,7
2019-01-06T23:20:01.611Z,7
2019-01-06T23:25:01.316Z,7
2019-01-06T23:30:01.170Z,7
2019-01-06T23:35:01.774Z,7
2019-01-06T23:40:02.112Z,7
2019-01-06T23:45:01.844Z,7.1
2019-01-06T23:50:02.085Z,7
2019-01-06T23:55:01.642Z,7
